sensor_id;sensor_type;location;lat;lon;timestamp;temperature;humidity
14893;DHT22;7538;53.626;9.906;2023-04-21T00:00:49;8.30;99.90
14893;DHT22;7538;53.626;9.906;2023-04-21T00:03:16;8.30;99.90
14893;DHT22;7538;53.626;9.906;2023-04-21T00:05:44;8.20;99.90
14893;DHT22;7538;53.626;9.906;2023-04-21T00:08:13;8.20;99.90
14893;DHT22;7538;53.626;9.906;2023-04-21T00:10:39;8.20;99.90
14893;DHT22;7538;53.626;9.906;2023-04-21T00:13:06;8.20;99.90
14893;DHT22;7538;53.626;9.906;2023-04-21T00:15:33;8.20;99.90
14893;DHT22;7538;53.626;9.906;2023-04-21T00:18:00;8.30;99.90
14893;DHT22;7538;53.626;9.906;2023-04-21T00:20:28;8.20;99.90
14893;DHT22;7538;53.626;9.906;2023-04-21T00:22:55;8.30;99.90
14893;DHT22;7538;53.626;9.906;2023-04-21T00:25:24;8.30;99.90
14893;DHT22;7538;53.626;9.906;2023-04-21T00:27:51;8.30;99.90
14893;DHT22;7538;53.626;9.906;2023-04-21T00:30:18;8.40;99.90
14893;DHT22;7538;53.626;9.906;2023-04-21T00:32:45;5.90;99.90
14893;DHT22;7538;53.626;9.906;2023-04-21T00:35:12;8.20;99.90
14893;DHT22;7538;53.626;9.906;2023-04-21T00:37:38;8.20;99.90
14893;DHT22;7538;53.626;9.906;2023-04-21T00:40:07;8.20;99.90
14893;DHT22;7538;53.626;9.906;2023-04-21T00:42:35;8.20;99.90
14893;DHT22;7538;53.626;9.906;2023-04-21T00:45:02;8.20;99.90
14893;DHT22;7538;53.626;9.906;2023-04-21T00:47:29;8.30;99.90
14893;DHT22;7538;53.626;9.906;2023-04-21T00:49:56;8.20;99.90
14893;DHT22;7538;53.626;9.906;2023-04-21T00:52:23;8.30;99.90
14893;DHT22;7538;53.626;9.906;2023-04-21T00:54:51;8.20;99.90
14893;DHT22;7538;53.626;9.906;2023-04-21T00:57:18;8.20;99.90
14893;DHT22;7538;53.626;9.906;2023-04-21T00:59:47;8.20;99.90
14893;DHT22;7538;53.626;9.906;2023-04-21T01:02:14;8.20;99.90
14893;DHT22;7538;53.626;9.906;2023-04-21T01:04:42;8.20;99.90
14893;DHT22;7538;53.626;9.906;2023-04-21T01:07:10;8.20;99.90
14893;DHT22;7538;53.626;9.906;2023-04-21T01:09:37;8.20;99.90
14893;DHT22;7538;53.626;9.906;2023-04-21T01:12:05;8.20;99.90
14893;DHT22;7538;53.626;9.906;2023-04-21T01:14:32;8.20;99.90
14893;DHT22;7538;53.626;9.906;2023-04-21T01:17:00;8.20;99.90
14893;DHT22;7538;53.626;9.906;2023-04-21T01:19:33;8.30;99.90
14893;DHT22;7538;53.626;9.906;2023-04-21T01:22:02;8.20;99.90
14893;DHT22;7538;53.626;9.906;2023-04-21T01:24:36;8.20;99.90
14893;DHT22;7538;53.626;9.906;2023-04-21T01:27:07;8.10;99.90
14893;DHT22;7538;53.626;9.906;2023-04-21T01:29:35;8.20;99.90
14893;DHT22;7538;53.626;9.906;2023-04-21T01:32:06;8.20;99.90
14893;DHT22;7538;53.626;9.906;2023-04-21T01:34:33;8.10;99.90
14893;DHT22;7538;53.626;9.906;2023-04-21T01:37:01;8.10;99.90
14893;DHT22;7538;53.626;9.906;2023-04-21T01:39:28;8.10;99.90
14893;DHT22;7538;53.626;9.906;2023-04-21T01:41:56;8.20;99.90
14893;DHT22;7538;53.626;9.906;2023-04-21T01:44:24;8.20;99.90
14893;DHT22;7538;53.626;9.906;2023-04-21T01:46:51;8.10;99.90
14893;DHT22;7538;53.626;9.906;2023-04-21T01:49:18;8.20;99.90
14893;DHT22;7538;53.626;9.906;2023-04-21T01:51:44;8.10;99.90
14893;DHT22;7538;53.626;9.906;2023-04-21T01:54:13;8.20;99.90
14893;DHT22;7538;53.626;9.906;2023-04-21T01:56:40;6.90;99.90
14893;DHT22;7538;53.626;9.906;2023-04-21T01:59:07;8.20;99.90
14893;DHT22;7538;53.626;9.906;2023-04-21T02:01:33;8.20;99.90
14893;DHT22;7538;53.626;9.906;2023-04-21T02:04:01;8.10;99.90
14893;DHT22;7538;53.626;9.906;2023-04-21T02:06:28;8.10;99.90
14893;DHT22;7538;53.626;9.906;2023-04-21T02:08:55;8.10;99.90
14893;DHT22;7538;53.626;9.906;2023-04-21T02:11:24;8.40;99.90
14893;DHT22;7538;53.626;9.906;2023-04-21T02:13:51;8.20;99.90
14893;DHT22;7538;53.626;9.906;2023-04-21T02:16:18;8.20;99.90
14893;DHT22;7538;53.626;9.906;2023-04-21T02:18:45;8.10;99.90
14893;DHT22;7538;53.626;9.906;2023-04-21T02:21:13;11.30;99.90
14893;DHT22;7538;53.626;9.906;2023-04-21T02:23:40;9.40;99.90
14893;DHT22;7538;53.626;9.906;2023-04-21T02:26:07;8.00;99.90
14893;DHT22;7538;53.626;9.906;2023-04-21T02:28:35;8.10;99.90
14893;DHT22;7538;53.626;9.906;2023-04-21T02:31:02;8.00;99.90
14893;DHT22;7538;53.626;9.906;2023-04-21T02:33:29;8.00;99.90
14893;DHT22;7538;53.626;9.906;2023-04-21T02:35:56;8.10;99.90
14893;DHT22;7538;53.626;9.906;2023-04-21T02:38:22;8.10;99.90
14893;DHT22;7538;53.626;9.906;2023-04-21T02:40:49;8.00;99.90
14893;DHT22;7538;53.626;9.906;2023-04-21T02:43:16;8.00;99.90
14893;DHT22;7538;53.626;9.906;2023-04-21T02:45:45;8.00;99.90
14893;DHT22;7538;53.626;9.906;2023-04-21T02:48:12;8.00;99.90
14893;DHT22;7538;53.626;9.906;2023-04-21T02:50:39;8.00;99.90
14893;DHT22;7538;53.626;9.906;2023-04-21T02:53:06;8.00;99.90
14893;DHT22;7538;53.626;9.906;2023-04-21T02:55:33;8.00;99.90
14893;DHT22;7538;53.626;9.906;2023-04-21T02:58:00;8.00;99.90
14893;DHT22;7538;53.626;9.906;2023-04-21T03:00:26;8.00;99.90
14893;DHT22;7538;53.626;9.906;2023-04-21T03:02:55;8.00;99.90
14893;DHT22;7538;53.626;9.906;2023-04-21T03:05:21;8.00;99.90
14893;DHT22;7538;53.626;9.906;2023-04-21T03:07:48;8.10;99.90
14893;DHT22;7538;53.626;9.906;2023-04-21T03:10:15;8.40;99.90
14893;DHT22;7538;53.626;9.906;2023-04-21T03:12:42;8.10;99.90
14893;DHT22;7538;53.626;9.906;2023-04-21T03:15:08;8.10;99.90
14893;DHT22;7538;53.626;9.906;2023-04-21T03:17:35;8.10;99.90
14893;DHT22;7538;53.626;9.906;2023-04-21T03:20:05;8.10;99.90
14893;DHT22;7538;53.626;9.906;2023-04-21T03:22:32;8.10;99.90
14893;DHT22;7538;53.626;9.906;2023-04-21T03:24:59;8.10;99.90
14893;DHT22;7538;53.626;9.906;2023-04-21T03:27:26;8.00;99.90
14893;DHT22;7538;53.626;9.906;2023-04-21T03:29:53;7.90;99.90
14893;DHT22;7538;53.626;9.906;2023-04-21T03:32:20;7.80;99.90
14893;DHT22;7538;53.626;9.906;2023-04-21T03:34:46;7.80;99.90
14893;DHT22;7538;53.626;9.906;2023-04-21T03:37:15;7.80;99.90
14893;DHT22;7538;53.626;9.906;2023-04-21T03:39:42;7.80;99.90
14893;DHT22;7538;53.626;9.906;2023-04-21T03:42:09;7.90;99.90
14893;DHT22;7538;53.626;9.906;2023-04-21T03:44:36;7.90;99.90
14893;DHT22;7538;53.626;9.906;2023-04-21T03:47:03;8.00;99.90
14893;DHT22;7538;53.626;9.906;2023-04-21T03:49:29;8.00;99.90
14893;DHT22;7538;53.626;9.906;2023-04-21T03:51:59;8.00;99.90
14893;DHT22;7538;53.626;9.906;2023-04-21T03:54:27;8.00;99.90
14893;DHT22;7538;53.626;9.906;2023-04-21T03:56:54;8.00;99.90
14893;DHT22;7538;53.626;9.906;2023-04-21T03:59:20;8.00;99.90
14893;DHT22;7538;53.626;9.906;2023-04-21T04:01:47;8.00;99.90
14893;DHT22;7538;53.626;9.906;2023-04-21T04:04:14;8.00;99.90
14893;DHT22;7538;53.626;9.906;2023-04-21T04:06:41;8.00;99.90
14893;DHT22;7538;53.626;9.906;2023-04-21T04:09:08;8.00;99.90
14893;DHT22;7538;53.626;9.906;2023-04-21T04:11:36;7.00;99.90
14893;DHT22;7538;53.626;9.906;2023-04-21T04:14:03;8.00;99.90
14893;DHT22;7538;53.626;9.906;2023-04-21T04:16:29;7.90;99.90
14893;DHT22;7538;53.626;9.906;2023-04-21T04:18:56;7.90;99.90
14893;DHT22;7538;53.626;9.906;2023-04-21T04:21:23;7.90;99.90
14893;DHT22;7538;53.626;9.906;2023-04-21T04:23:50;7.90;99.90
14893;DHT22;7538;53.626;9.906;2023-04-21T04:26:17;7.80;99.90
14893;DHT22;7538;53.626;9.906;2023-04-21T04:28:45;7.90;99.90
14893;DHT22;7538;53.626;9.906;2023-04-21T04:31:12;7.90;99.90
14893;DHT22;7538;53.626;9.906;2023-04-21T04:33:40;7.90;99.90
14893;DHT22;7538;53.626;9.906;2023-04-21T04:36:08;7.90;99.90
14893;DHT22;7538;53.626;9.906;2023-04-21T04:38:37;7.90;99.90
14893;DHT22;7538;53.626;9.906;2023-04-21T04:41:04;8.00;99.90
14893;DHT22;7538;53.626;9.906;2023-04-21T04:43:33;8.00;99.90
14893;DHT22;7538;53.626;9.906;2023-04-21T04:46:02;8.10;99.90
14893;DHT22;7538;53.626;9.906;2023-04-21T04:48:30;8.10;99.90
14893;DHT22;7538;53.626;9.906;2023-04-21T04:50:57;8.00;99.90
14893;DHT22;7538;53.626;9.906;2023-04-21T04:53:23;8.00;99.90
14893;DHT22;7538;53.626;9.906;2023-04-21T04:55:50;8.00;99.90
14893;DHT22;7538;53.626;9.906;2023-04-21T04:58:18;8.00;99.90
14893;DHT22;7538;53.626;9.906;2023-04-21T05:00:45;4.60;99.90
14893;DHT22;7538;53.626;9.906;2023-04-21T05:03:13;8.20;99.90
14893;DHT22;7538;53.626;9.906;2023-04-21T05:05:40;8.30;99.90
14893;DHT22;7538;53.626;9.906;2023-04-21T05:08:06;8.30;99.90
14893;DHT22;7538;53.626;9.906;2023-04-21T05:10:33;8.30;99.90
14893;DHT22;7538;53.626;9.906;2023-04-21T05:13:00;8.50;99.90
14893;DHT22;7538;53.626;9.906;2023-04-21T05:15:27;8.50;99.90
14893;DHT22;7538;53.626;9.906;2023-04-21T05:17:53;8.70;99.90
14893;DHT22;7538;53.626;9.906;2023-04-21T05:20:22;7.30;99.90
14893;DHT22;7538;53.626;9.906;2023-04-21T05:22:49;8.90;99.90
14893;DHT22;7538;53.626;9.906;2023-04-21T05:25:15;8.90;99.90
14893;DHT22;7538;53.626;9.906;2023-04-21T05:27:42;9.00;99.90
14893;DHT22;7538;53.626;9.906;2023-04-21T05:30:10;9.10;99.90
14893;DHT22;7538;53.626;9.906;2023-04-21T05:32:37;9.20;99.90
14893;DHT22;7538;53.626;9.906;2023-04-21T05:35:05;9.40;99.90
14893;DHT22;7538;53.626;9.906;2023-04-21T05:37:33;9.50;99.90
14893;DHT22;7538;53.626;9.906;2023-04-21T05:40:00;9.60;99.90
14893;DHT22;7538;53.626;9.906;2023-04-21T05:42:26;9.80;99.90
14893;DHT22;7538;53.626;9.906;2023-04-21T05:44:53;10.00;99.90
14893;DHT22;7538;53.626;9.906;2023-04-21T05:47:20;10.10;99.90
14893;DHT22;7538;53.626;9.906;2023-04-21T05:49:49;10.40;99.90
14893;DHT22;7538;53.626;9.906;2023-04-21T05:52:18;10.70;99.90
14893;DHT22;7538;53.626;9.906;2023-04-21T05:54:46;11.00;99.90
14893;DHT22;7538;53.626;9.906;2023-04-21T05:57:13;11.40;99.90
14893;DHT22;7538;53.626;9.906;2023-04-21T05:59:42;11.90;99.90
14893;DHT22;7538;53.626;9.906;2023-04-21T06:02:08;12.30;99.90
14893;DHT22;7538;53.626;9.906;2023-04-21T06:04:35;12.80;99.90
14893;DHT22;7538;53.626;9.906;2023-04-21T06:07:05;13.50;99.90
14893;DHT22;7538;53.626;9.906;2023-04-21T06:09:33;14.30;99.90
14893;DHT22;7538;53.626;9.906;2023-04-21T06:12:01;15.10;97.10
14893;DHT22;7538;53.626;9.906;2023-04-21T06:14:28;15.60;95.50
14893;DHT22;7538;53.626;9.906;2023-04-21T06:16:55;16.20;94.70
14893;DHT22;7538;53.626;9.906;2023-04-21T06:19:21;16.80;93.40
14893;DHT22;7538;53.626;9.906;2023-04-21T06:21:48;17.50;91.80
14893;DHT22;7538;53.626;9.906;2023-04-21T06:24:15;17.80;90.70
14893;DHT22;7538;53.626;9.906;2023-04-21T06:26:49;18.10;89.00
14893;DHT22;7538;53.626;9.906;2023-04-21T06:29:17;18.10;89.50
14893;DHT22;7538;53.626;9.906;2023-04-21T06:31:44;18.50;87.70
14893;DHT22;7538;53.626;9.906;2023-04-21T06:34:11;19.00;85.20
14893;DHT22;7538;53.626;9.906;2023-04-21T06:36:37;19.10;84.40
14893;DHT22;7538;53.626;9.906;2023-04-21T06:39:04;19.10;83.20
14893;DHT22;7538;53.626;9.906;2023-04-21T06:41:31;18.60;83.90
14893;DHT22;7538;53.626;9.906;2023-04-21T06:43:58;18.70;84.40
14893;DHT22;7538;53.626;9.906;2023-04-21T06:46:26;19.00;84.00
14893;DHT22;7538;53.626;9.906;2023-04-21T06:48:52;19.30;82.40
14893;DHT22;7538;53.626;9.906;2023-04-21T06:51:19;18.90;81.50
14893;DHT22;7538;53.626;9.906;2023-04-21T06:53:46;18.40;82.90
14893;DHT22;7538;53.626;9.906;2023-04-21T06:56:13;18.10;84.50
14893;DHT22;7538;53.626;9.906;2023-04-21T06:58:39;18.80;83.40
14893;DHT22;7538;53.626;9.906;2023-04-21T07:01:06;19.50;81.90
14893;DHT22;7538;53.626;9.906;2023-04-21T07:03:34;19.60;79.60
14893;DHT22;7538;53.626;9.906;2023-04-21T07:06:01;19.20;81.50
14893;DHT22;7538;53.626;9.906;2023-04-21T07:08:28;20.00;80.80
14893;DHT22;7538;53.626;9.906;2023-04-21T07:10:55;20.60;78.60
14893;DHT22;7538;53.626;9.906;2023-04-21T07:13:21;21.30;76.20
14893;DHT22;7538;53.626;9.906;2023-04-21T07:15:48;22.10;73.90
14893;DHT22;7538;53.626;9.906;2023-04-21T07:18:15;22.30;71.80
14893;DHT22;7538;53.626;9.906;2023-04-21T07:20:43;22.40;70.30
14893;DHT22;7538;53.626;9.906;2023-04-21T07:23:10;22.10;70.50
14893;DHT22;7538;53.626;9.906;2023-04-21T07:25:37;22.50;69.00
14893;DHT22;7538;53.626;9.906;2023-04-21T07:28:04;22.10;69.20
14893;DHT22;7538;53.626;9.906;2023-04-21T07:30:31;22.40;69.60
14893;DHT22;7538;53.626;9.906;2023-04-21T07:32:58;23.20;68.10
14893;DHT22;7538;53.626;9.906;2023-04-21T07:35:25;23.90;64.90
14893;DHT22;7538;53.626;9.906;2023-04-21T07:37:53;24.30;63.60
14893;DHT22;7538;53.626;9.906;2023-04-21T07:40:20;24.50;60.70
14893;DHT22;7538;53.626;9.906;2023-04-21T07:42:46;24.40;60.90
14893;DHT22;7538;53.626;9.906;2023-04-21T07:45:13;24.40;59.70
14893;DHT22;7538;53.626;9.906;2023-04-21T07:47:40;24.30;60.60
14893;DHT22;7538;53.626;9.906;2023-04-21T07:50:08;24.20;59.20
14893;DHT22;7538;53.626;9.906;2023-04-21T07:52:35;23.50;60.50
14893;DHT22;7538;53.626;9.906;2023-04-21T07:55:03;23.40;60.90
14893;DHT22;7538;53.626;9.906;2023-04-21T07:57:30;23.30;61.30
14893;DHT22;7538;53.626;9.906;2023-04-21T07:59:59;23.90;61.60
14893;DHT22;7538;53.626;9.906;2023-04-21T08:02:25;24.80;59.10
14893;DHT22;7538;53.626;9.906;2023-04-21T08:04:52;24.70;58.00
14893;DHT22;7538;53.626;9.906;2023-04-21T08:07:19;25.00;57.80
14893;DHT22;7538;53.626;9.906;2023-04-21T08:09:46;25.60;57.10
14893;DHT22;7538;53.626;9.906;2023-04-21T08:12:14;25.50;55.20
14893;DHT22;7538;53.626;9.906;2023-04-21T08:14:40;25.30;55.70
14893;DHT22;7538;53.626;9.906;2023-04-21T08:17:07;25.70;54.80
14893;DHT22;7538;53.626;9.906;2023-04-21T08:19:34;25.70;54.80
14893;DHT22;7538;53.626;9.906;2023-04-21T08:22:01;26.10;55.10
14893;DHT22;7538;53.626;9.906;2023-04-21T08:24:28;26.60;53.10
14893;DHT22;7538;53.626;9.906;2023-04-21T08:26:54;25.90;53.20
14893;DHT22;7538;53.626;9.906;2023-04-21T08:29:23;26.20;53.70
14893;DHT22;7538;53.626;9.906;2023-04-21T08:31:50;27.00;53.10
14893;DHT22;7538;53.626;9.906;2023-04-21T08:34:16;27.30;51.30
14893;DHT22;7538;53.626;9.906;2023-04-21T08:36:44;27.30;51.60
14893;DHT22;7538;53.626;9.906;2023-04-21T08:39:11;27.40;50.60
14893;DHT22;7538;53.626;9.906;2023-04-21T08:41:39;28.00;51.50
14893;DHT22;7538;53.626;9.906;2023-04-21T08:44:06;28.50;50.30
14893;DHT22;7538;53.626;9.906;2023-04-21T08:46:35;28.70;48.70
14893;DHT22;7538;53.626;9.906;2023-04-21T08:49:02;29.00;47.80
14893;DHT22;7538;53.626;9.906;2023-04-21T08:51:29;28.50;47.70
14893;DHT22;7538;53.626;9.906;2023-04-21T08:53:56;28.90;47.50
14893;DHT22;7538;53.626;9.906;2023-04-21T08:56:24;29.50;46.70
14893;DHT22;7538;53.626;9.906;2023-04-21T08:58:51;29.90;45.60
14893;DHT22;7538;53.626;9.906;2023-04-21T09:01:18;29.70;45.50
14893;DHT22;7538;53.626;9.906;2023-04-21T09:03:46;29.90;45.10
14893;DHT22;7538;53.626;9.906;2023-04-21T09:06:13;30.20;43.80
14893;DHT22;7538;53.626;9.906;2023-04-21T09:08:42;29.80;42.90
14893;DHT22;7538;53.626;9.906;2023-04-21T09:11:12;28.50;44.50
14893;DHT22;7538;53.626;9.906;2023-04-21T09:13:41;28.90;44.40
14893;DHT22;7538;53.626;9.906;2023-04-21T09:16:15;28.80;43.80
14893;DHT22;7538;53.626;9.906;2023-04-21T09:18:43;29.20;44.10
14893;DHT22;7538;53.626;9.906;2023-04-21T09:21:13;29.60;43.60
14893;DHT22;7538;53.626;9.906;2023-04-21T09:23:41;29.80;43.70
14893;DHT22;7538;53.626;9.906;2023-04-21T09:26:08;30.40;42.90
14893;DHT22;7538;53.626;9.906;2023-04-21T09:28:35;30.40;42.90
14893;DHT22;7538;53.626;9.906;2023-04-21T09:31:02;30.40;42.40
14893;DHT22;7538;53.626;9.906;2023-04-21T09:33:32;29.90;42.90
14893;DHT22;7538;53.626;9.906;2023-04-21T09:36:00;29.70;43.30
14893;DHT22;7538;53.626;9.906;2023-04-21T09:38:29;29.00;43.20
14893;DHT22;7538;53.626;9.906;2023-04-21T09:40:56;29.30;43.90
14893;DHT22;7538;53.626;9.906;2023-04-21T09:43:23;29.90;43.00
14893;DHT22;7538;53.626;9.906;2023-04-21T09:45:50;29.60;42.70
14893;DHT22;7538;53.626;9.906;2023-04-21T09:48:18;29.10;42.80
14893;DHT22;7538;53.626;9.906;2023-04-21T09:50:46;28.70;43.80
14893;DHT22;7538;53.626;9.906;2023-04-21T09:53:15;29.40;43.30
14893;DHT22;7538;53.626;9.906;2023-04-21T09:55:48;30.20;42.20
14893;DHT22;7538;53.626;9.906;2023-04-21T09:58:19;31.00;43.20
14893;DHT22;7538;53.626;9.906;2023-04-21T10:00:48;31.80;41.40
14893;DHT22;7538;53.626;9.906;2023-04-21T10:03:17;31.30;40.10
14893;DHT22;7538;53.626;9.906;2023-04-21T10:05:45;30.80;41.10
14893;DHT22;7538;53.626;9.906;2023-04-21T10:08:12;30.10;40.70
14893;DHT22;7538;53.626;9.906;2023-04-21T10:10:39;29.10;42.10
14893;DHT22;7538;53.626;9.906;2023-04-21T10:13:12;29.10;43.60
14893;DHT22;7538;53.626;9.906;2023-04-21T10:15:40;28.40;41.90
14893;DHT22;7538;53.626;9.906;2023-04-21T10:18:12;27.90;42.00
14893;DHT22;7538;53.626;9.906;2023-04-21T10:20:53;27.70;42.70
14893;DHT22;7538;53.626;9.906;2023-04-21T10:23:31;27.20;43.50
14893;DHT22;7538;53.626;9.906;2023-04-21T10:26:04;27.40;44.40
14893;DHT22;7538;53.626;9.906;2023-04-21T10:28:44;27.60;43.80
14893;DHT22;7538;53.626;9.906;2023-04-21T10:31:23;27.90;43.90
14893;DHT22;7538;53.626;9.906;2023-04-21T10:34:15;28.40;43.90
14893;DHT22;7538;53.626;9.906;2023-04-21T10:39:30;28.20;43.30
14893;DHT22;7538;53.626;9.906;2023-04-21T10:42:18;27.70;43.70
14893;DHT22;7538;53.626;9.906;2023-04-21T10:44:52;27.30;43.70
14893;DHT22;7538;53.626;9.906;2023-04-21T10:47:25;27.30;43.30
14893;DHT22;7538;53.626;9.906;2023-04-21T10:49:53;26.70;44.40
14893;DHT22;7538;53.626;9.906;2023-04-21T10:52:21;26.00;45.80
14893;DHT22;7538;53.626;9.906;2023-04-21T10:55:08;26.00;45.30
14893;DHT22;7538;53.626;9.906;2023-04-21T10:57:40;25.90;45.50
14893;DHT22;7538;53.626;9.906;2023-04-21T11:00:10;25.70;44.70
14893;DHT22;7538;53.626;9.906;2023-04-21T11:02:37;25.60;45.60
14893;DHT22;7538;53.626;9.906;2023-04-21T11:05:04;25.80;46.30
14893;DHT22;7538;53.626;9.906;2023-04-21T11:07:31;25.90;45.50
14893;DHT22;7538;53.626;9.906;2023-04-21T11:09:59;26.00;45.20
14893;DHT22;7538;53.626;9.906;2023-04-21T11:12:27;25.80;46.00
14893;DHT22;7538;53.626;9.906;2023-04-21T11:14:55;25.50;46.90
14893;DHT22;7538;53.626;9.906;2023-04-21T11:17:24;25.30;45.70
14893;DHT22;7538;53.626;9.906;2023-04-21T11:19:52;29.20;48.80
14893;DHT22;7538;53.626;9.906;2023-04-21T11:22:20;25.60;46.80
14893;DHT22;7538;53.626;9.906;2023-04-21T11:24:49;25.50;46.30
14893;DHT22;7538;53.626;9.906;2023-04-21T11:27:16;25.40;46.40
14893;DHT22;7538;53.626;9.906;2023-04-21T11:29:44;25.20;46.20
14893;DHT22;7538;53.626;9.906;2023-04-21T11:32:12;24.40;47.20
14893;DHT22;7538;53.626;9.906;2023-04-21T11:34:40;23.80;50.00
14893;DHT22;7538;53.626;9.906;2023-04-21T11:37:08;23.20;52.50
14893;DHT22;7538;53.626;9.906;2023-04-21T11:39:35;22.80;53.20
14893;DHT22;7538;53.626;9.906;2023-04-21T11:42:05;22.20;53.10
14893;DHT22;7538;53.626;9.906;2023-04-21T11:44:33;21.70;54.10
14893;DHT22;7538;53.626;9.906;2023-04-21T11:47:11;21.40;56.70
14893;DHT22;7538;53.626;9.906;2023-04-21T11:49:45;21.10;56.50
14893;DHT22;7538;53.626;9.906;2023-04-21T11:52:19;20.80;58.10
14893;DHT22;7538;53.626;9.906;2023-04-21T11:54:46;20.70;58.30
14893;DHT22;7538;53.626;9.906;2023-04-21T11:57:17;20.60;59.10
14893;DHT22;7538;53.626;9.906;2023-04-21T11:59:44;20.60;59.10
14893;DHT22;7538;53.626;9.906;2023-04-21T12:02:13;20.50;59.80
14893;DHT22;7538;53.626;9.906;2023-04-21T12:04:57;20.50;60.50
14893;DHT22;7538;53.626;9.906;2023-04-21T12:07:24;20.40;61.50
14893;DHT22;7538;53.626;9.906;2023-04-21T12:09:51;20.60;62.10
14893;DHT22;7538;53.626;9.906;2023-04-21T12:12:18;22.10;61.90
14893;DHT22;7538;53.626;9.906;2023-04-21T12:14:48;20.60;61.20
14893;DHT22;7538;53.626;9.906;2023-04-21T12:17:15;20.70;60.90
14893;DHT22;7538;53.626;9.906;2023-04-21T12:19:42;20.70;59.50
14893;DHT22;7538;53.626;9.906;2023-04-21T12:22:11;20.60;60.90
14893;DHT22;7538;53.626;9.906;2023-04-21T12:24:38;20.60;61.60
14893;DHT22;7538;53.626;9.906;2023-04-21T12:27:06;20.60;60.90
14893;DHT22;7538;53.626;9.906;2023-04-21T12:29:33;20.50;61.10
14893;DHT22;7538;53.626;9.906;2023-04-21T12:32:01;20.60;61.80
14893;DHT22;7538;53.626;9.906;2023-04-21T12:34:28;20.60;63.30
14893;DHT22;7538;53.626;9.906;2023-04-21T12:36:55;20.70;60.20
14893;DHT22;7538;53.626;9.906;2023-04-21T12:39:23;20.60;60.00
14893;DHT22;7538;53.626;9.906;2023-04-21T12:41:50;20.60;61.10
14893;DHT22;7538;53.626;9.906;2023-04-21T12:44:17;20.50;61.30
14893;DHT22;7538;53.626;9.906;2023-04-21T12:46:44;20.50;61.60
14893;DHT22;7538;53.626;9.906;2023-04-21T12:49:13;20.60;62.90
14893;DHT22;7538;53.626;9.906;2023-04-21T12:51:40;20.60;64.60
14893;DHT22;7538;53.626;9.906;2023-04-21T12:54:07;20.90;63.80
14893;DHT22;7538;53.626;9.906;2023-04-21T12:56:35;20.70;61.30
14893;DHT22;7538;53.626;9.906;2023-04-21T12:59:04;20.70;61.60
14893;DHT22;7538;53.626;9.906;2023-04-21T13:01:31;20.50;63.20
14893;DHT22;7538;53.626;9.906;2023-04-21T13:03:58;20.60;63.70
14893;DHT22;7538;53.626;9.906;2023-04-21T13:06:25;20.50;62.10
14893;DHT22;7538;53.626;9.906;2023-04-21T13:08:52;20.60;61.60
14893;DHT22;7538;53.626;9.906;2023-04-21T13:11:19;20.50;61.80
14893;DHT22;7538;53.626;9.906;2023-04-21T13:13:47;20.50;63.60
14893;DHT22;7538;53.626;9.906;2023-04-21T13:16:14;20.50;62.10
14893;DHT22;7538;53.626;9.906;2023-04-21T13:18:41;20.60;61.10
14893;DHT22;7538;53.626;9.906;2023-04-21T13:21:08;20.70;64.10
14893;DHT22;7538;53.626;9.906;2023-04-21T13:23:35;20.70;65.50
14893;DHT22;7538;53.626;9.906;2023-04-21T13:26:02;20.60;66.50
14893;DHT22;7538;53.626;9.906;2023-04-21T13:28:29;20.50;66.80
14893;DHT22;7538;53.626;9.906;2023-04-21T13:30:57;20.50;67.70
14893;DHT22;7538;53.626;9.906;2023-04-21T13:33:24;20.40;68.10
14893;DHT22;7538;53.626;9.906;2023-04-21T13:35:51;20.30;67.60
14893;DHT22;7538;53.626;9.906;2023-04-21T13:38:19;20.30;69.10
14893;DHT22;7538;53.626;9.906;2023-04-21T13:40:46;20.40;69.50
14893;DHT22;7538;53.626;9.906;2023-04-21T13:43:13;20.40;69.70
14893;DHT22;7538;53.626;9.906;2023-04-21T13:45:40;20.50;70.20
14893;DHT22;7538;53.626;9.906;2023-04-21T13:48:08;20.30;70.10
14893;DHT22;7538;53.626;9.906;2023-04-21T13:50:35;20.40;69.10
14893;DHT22;7538;53.626;9.906;2023-04-21T13:53:02;20.40;69.70
14893;DHT22;7538;53.626;9.906;2023-04-21T13:55:29;20.40;69.50
14893;DHT22;7538;53.626;9.906;2023-04-21T13:57:57;20.40;69.20
14893;DHT22;7538;53.626;9.906;2023-04-21T14:00:25;20.40;69.00
14893;DHT22;7538;53.626;9.906;2023-04-21T14:02:52;20.40;69.60
14893;DHT22;7538;53.626;9.906;2023-04-21T14:05:20;20.30;68.60
14893;DHT22;7538;53.626;9.906;2023-04-21T14:07:47;20.50;69.40
14893;DHT22;7538;53.626;9.906;2023-04-21T14:10:14;20.50;68.80
14893;DHT22;7538;53.626;9.906;2023-04-21T14:12:40;20.60;69.20
14893;DHT22;7538;53.626;9.906;2023-04-21T14:15:10;20.60;68.80
14893;DHT22;7538;53.626;9.906;2023-04-21T14:17:37;20.50;66.90
14893;DHT22;7538;53.626;9.906;2023-04-21T14:20:05;20.40;66.60
14893;DHT22;7538;53.626;9.906;2023-04-21T14:22:35;20.20;65.60
14893;DHT22;7538;53.626;9.906;2023-04-21T14:25:02;20.20;65.40
14893;DHT22;7538;53.626;9.906;2023-04-21T14:27:29;20.10;66.20
14893;DHT22;7538;53.626;9.906;2023-04-21T14:29:56;20.10;66.20
14893;DHT22;7538;53.626;9.906;2023-04-21T14:32:24;20.20;67.60
14893;DHT22;7538;53.626;9.906;2023-04-21T14:34:50;20.20;65.30
14893;DHT22;7538;53.626;9.906;2023-04-21T14:37:19;20.40;64.20
14893;DHT22;7538;53.626;9.906;2023-04-21T14:39:47;23.50;66.00
14893;DHT22;7538;53.626;9.906;2023-04-21T14:42:14;20.30;63.50
14893;DHT22;7538;53.626;9.906;2023-04-21T14:44:41;20.20;64.20
14893;DHT22;7538;53.626;9.906;2023-04-21T14:47:08;20.20;63.90
14893;DHT22;7538;53.626;9.906;2023-04-21T14:49:34;20.40;64.70
14893;DHT22;7538;53.626;9.906;2023-04-21T14:52:02;20.20;64.60
14893;DHT22;7538;53.626;9.906;2023-04-21T14:54:28;20.30;63.60
14893;DHT22;7538;53.626;9.906;2023-04-21T14:56:57;20.30;64.10
14893;DHT22;7538;53.626;9.906;2023-04-21T14:59:25;20.40;64.30
14893;DHT22;7538;53.626;9.906;2023-04-21T15:01:51;20.20;64.20
14893;DHT22;7538;53.626;9.906;2023-04-21T15:04:18;20.10;64.80
14893;DHT22;7538;53.626;9.906;2023-04-21T15:06:45;20.20;65.70
14893;DHT22;7538;53.626;9.906;2023-04-21T15:09:12;20.10;65.70
14893;DHT22;7538;53.626;9.906;2023-04-21T15:11:39;20.10;66.00
14893;DHT22;7538;53.626;9.906;2023-04-21T15:14:07;20.00;67.30
14893;DHT22;7538;53.626;9.906;2023-04-21T15:16:34;19.90;66.80
14893;DHT22;7538;53.626;9.906;2023-04-21T15:19:01;19.80;67.60
14893;DHT22;7538;53.626;9.906;2023-04-21T15:21:28;19.70;67.20
14893;DHT22;7538;53.626;9.906;2023-04-21T15:23:56;19.80;68.10
14893;DHT22;7538;53.626;9.906;2023-04-21T15:26:23;20.00;68.60
14893;DHT22;7538;53.626;9.906;2023-04-21T15:28:50;20.00;69.10
14893;DHT22;7538;53.626;9.906;2023-04-21T15:31:18;20.10;68.40
14893;DHT22;7538;53.626;9.906;2023-04-21T15:33:44;20.00;68.80
14893;DHT22;7538;53.626;9.906;2023-04-21T15:36:11;19.80;68.80
14893;DHT22;7538;53.626;9.906;2023-04-21T15:38:38;19.70;69.30
14893;DHT22;7538;53.626;9.906;2023-04-21T15:41:05;19.60;69.50
14893;DHT22;7538;53.626;9.906;2023-04-21T15:43:32;19.50;70.30
14893;DHT22;7538;53.626;9.906;2023-04-21T15:46:00;19.50;70.40
14893;DHT22;7538;53.626;9.906;2023-04-21T15:48:28;19.50;70.80
14893;DHT22;7538;53.626;9.906;2023-04-21T15:50:55;19.50;70.80
14893;DHT22;7538;53.626;9.906;2023-04-21T15:53:23;19.60;70.60
14893;DHT22;7538;53.626;9.906;2023-04-21T15:55:49;19.60;70.10
14893;DHT22;7538;53.626;9.906;2023-04-21T15:58:17;19.60;69.90